createdAt,value
2019-02-28T00:01:46.281Z,9.49
2019-02-28T00:04:12.727Z,9.40
2019-02-28T00:06:40.233Z,9.30
2019-02-28T00:09:09.219Z,9.31
2019-02-28T00:11:39.525Z,9.28
2019-02-28T00:14:06.023Z,9.23
2019-02-28T00:16:35.662Z,9.20
2019-02-28T00:19:02.714Z,9.14
2019-02-28T00:21:31.064Z,9.09
2019-02-28T00:23:58.453Z,9.06
2019-02-28T00:26:25.943Z,9.05
2019-02-28T00:28:53.343Z,8.97
2019-02-28T00:31:20.803Z,8.97
2019-02-28T00:33:48.698Z,8.94
2019-02-28T00:36:16.285Z,8.95
2019-02-28T00:38:45.559Z,8.87
2019-02-28T00:41:13.003Z,8.83
2019-02-28T00:43:40.483Z,8.82
2019-02-28T00:46:10.112Z,8.81
2019-02-28T00:48:37.224Z,8.70
2019-02-28T00:51:04.744Z,8.72
2019-02-28T00:53:32.378Z,8.65
2019-02-28T00:55:59.758Z,8.59
2019-02-28T00:58:28.864Z,8.54
2019-02-28T01:00:56.499Z,8.49
2019-02-28T01:03:27.417Z,8.43
2019-02-28T01:05:53.203Z,8.45
2019-02-28T01:08:22.131Z,8.40
2019-02-28T01:10:49.933Z,8.47
2019-02-28T01:13:17.353Z,8.48
2019-02-28T01:15:45.723Z,8.35
2019-02-28T01:18:13.315Z,8.38
2019-02-28T01:20:40.687Z,8.38
2019-02-28T01:23:08.213Z,8.33
2019-02-28T01:25:37.174Z,8.39
2019-02-28T01:28:04.958Z,8.38
2019-02-28T01:30:32.383Z,8.37
2019-02-28T01:32:59.813Z,8.37
2019-02-28T01:35:27.208Z,8.38
2019-02-28T01:37:54.676Z,8.35
2019-02-28T01:40:22.058Z,8.50
2019-02-28T01:42:53.914Z,8.48
2019-02-28T01:45:18.779Z,8.41
2019-02-28T01:47:46.233Z,8.36
2019-02-28T01:50:13.727Z,8.39
2019-02-28T01:52:44.846Z,8.32
2019-02-28T01:55:11.373Z,8.33
2019-02-28T01:57:42.507Z,8.25
2019-02-28T02:00:10.474Z,8.25
2019-02-28T02:02:38.971Z,8.27
2019-02-28T02:05:06.913Z,8.22
2019-02-28T02:07:35.123Z,8.22
2019-02-28T02:10:03.945Z,8.19
2019-02-28T02:12:32.469Z,8.32
2019-02-28T02:14:59.883Z,8.35
2019-02-28T02:17:27.403Z,8.26
2019-02-28T02:19:54.794Z,8.12
2019-02-28T02:22:22.243Z,8.19
2019-02-28T02:24:49.623Z,8.15
2019-02-28T02:27:19.540Z,8.16
2019-02-28T02:29:46.303Z,8.11
2019-02-28T02:32:13.758Z,8.06
2019-02-28T02:34:41.155Z,7.95
2019-02-28T02:37:08.533Z,7.85
2019-02-28T02:39:35.970Z,7.84
2019-02-28T02:42:09.979Z,7.79
2019-02-28T02:44:32.700Z,7.75
2019-02-28T02:47:00.155Z,7.74
2019-02-28T02:49:27.561Z,7.73
2019-02-28T02:51:54.935Z,7.71
2019-02-28T02:54:22.381Z,7.70
2019-02-28T02:56:49.798Z,7.76
2019-02-28T02:59:17.599Z,7.76
2019-02-28T03:01:44.990Z,7.82
2019-02-28T03:04:21.391Z,7.89
2019-02-28T03:06:45.863Z,7.86
2019-02-28T03:09:11.250Z,7.83
2019-02-28T03:11:38.753Z,7.79
2019-02-28T03:14:06.160Z,7.79
2019-02-28T03:16:34.635Z,7.78
2019-02-28T03:19:02.274Z,7.77
2019-02-28T03:21:29.670Z,7.78
2019-02-28T03:23:57.159Z,7.74
2019-02-28T03:26:24.591Z,7.70
2019-02-28T03:28:52.044Z,7.73
2019-02-28T03:31:19.544Z,7.69
2019-02-28T03:33:47.031Z,7.71
2019-02-28T03:36:15.828Z,7.66
2019-02-28T03:38:48.622Z,7.62
2019-02-28T03:41:17.642Z,7.64
2019-02-28T03:43:43.771Z,7.62
2019-02-28T03:46:11.706Z,7.58
2019-02-28T03:48:39.198Z,7.60
2019-02-28T03:51:06.605Z,7.56
2019-02-28T03:53:34.012Z,7.55
2019-02-28T03:56:01.387Z,7.47
2019-02-28T03:58:28.813Z,7.49
2019-02-28T04:00:56.195Z,7.44
2019-02-28T04:03:23.626Z,7.44
2019-02-28T04:05:51.048Z,7.37
2019-02-28T04:08:19.114Z,7.34
2019-02-28T04:10:46.778Z,7.42
2019-02-28T04:13:14.174Z,7.40
2019-02-28T04:15:49.567Z,7.39
2019-02-28T04:18:11.050Z,7.34
2019-02-28T04:20:38.456Z,7.30
2019-02-28T04:23:05.942Z,7.33
2019-02-28T04:25:33.383Z,7.31
2019-02-28T04:28:00.851Z,7.31
2019-02-28T04:30:32.429Z,7.19
2019-02-28T04:33:01.488Z,7.19
2019-02-28T04:35:29.159Z,7.11
2019-02-28T04:37:56.529Z,7.07
2019-02-28T04:40:26.774Z,7.03
2019-02-28T04:42:53.241Z,6.97
2019-02-28T04:45:23.325Z,7.00
2019-02-28T04:47:50.100Z,6.92
2019-02-28T04:50:18.123Z,6.92
2019-02-28T04:52:48.058Z,6.88
2019-02-28T04:55:14.908Z,6.86
2019-02-28T04:57:42.328Z,6.82
2019-02-28T05:00:09.998Z,6.78
2019-02-28T05:02:37.381Z,6.74
2019-02-28T05:05:04.948Z,6.72
2019-02-28T05:07:32.339Z,6.69
2019-02-28T05:09:59.873Z,6.68
2019-02-28T05:12:27.297Z,6.63
2019-02-28T05:14:55.320Z,6.64
2019-02-28T05:17:24.009Z,6.59
2019-02-28T05:19:51.443Z,6.59
2019-02-28T05:22:18.828Z,6.61
2019-02-28T05:24:46.273Z,6.63
2019-02-28T05:27:13.668Z,6.55
2019-02-28T05:29:43.898Z,6.61
2019-02-28T05:32:10.683Z,6.49
2019-02-28T05:34:38.100Z,6.49
2019-02-28T05:37:05.508Z,6.49
2019-02-28T05:39:32.979Z,6.46
2019-02-28T05:42:00.382Z,6.38
2019-02-28T05:44:28.089Z,6.35
2019-02-28T05:46:58.103Z,6.34
2019-02-28T05:49:25.923Z,6.32
2019-02-28T05:51:53.302Z,6.38
2019-02-28T05:54:20.761Z,6.36
2019-02-28T05:56:48.203Z,6.41
2019-02-28T05:59:15.562Z,6.42
2019-02-28T06:01:46.577Z,6.43
2019-02-28T06:04:12.316Z,6.46
2019-02-28T06:06:39.755Z,6.49
2019-02-28T06:09:07.142Z,6.47
2019-02-28T06:11:35.634Z,6.53
2019-02-28T06:14:03.372Z,6.54
2019-02-28T06:16:30.782Z,6.51
2019-02-28T06:18:58.176Z,6.51
2019-02-28T06:21:25.634Z,6.48
2019-02-28T06:23:53.059Z,6.44
2019-02-28T06:26:20.491Z,6.50
2019-02-28T06:28:47.909Z,6.47
2019-02-28T06:31:15.421Z,6.49
2019-02-28T06:33:43.036Z,6.54
2019-02-28T06:36:10.466Z,6.65
2019-02-28T06:38:37.871Z,6.79
2019-02-28T06:41:07.692Z,6.95
2019-02-28T06:43:34.576Z,7.10
2019-02-28T06:46:03.705Z,7.27
2019-02-28T06:48:31.262Z,7.35
2019-02-28T06:50:58.666Z,7.43
2019-02-28T06:53:27.150Z,7.38
2019-02-28T06:55:54.597Z,7.41
2019-02-28T06:58:22.021Z,7.45
2019-02-28T07:00:59.781Z,7.47
2019-02-28T07:03:23.101Z,7.63
2019-02-28T07:05:50.705Z,7.88
2019-02-28T07:08:24.448Z,7.75
2019-02-28T07:10:51.834Z,7.96
2019-02-28T07:13:19.255Z,8.09
2019-02-28T07:15:49.254Z,8.28
2019-02-28T07:18:18.829Z,8.62
2019-02-28T07:20:48.041Z,8.80
2019-02-28T07:23:15.553Z,8.89
2019-02-28T07:25:44.322Z,9.18
2019-02-28T07:28:12.371Z,9.45
2019-02-28T07:30:40.114Z,9.61
2019-02-28T07:33:10.569Z,9.38
2019-02-28T07:35:37.008Z,8.97
2019-02-28T07:38:04.566Z,8.38
2019-02-28T07:40:33.271Z,8.22
2019-02-28T07:43:01.011Z,8.38
2019-02-28T07:45:29.601Z,7.93
2019-02-28T07:47:57.806Z,7.95
2019-02-28T07:50:25.181Z,8.04
2019-02-28T07:52:53.272Z,7.79
2019-02-28T07:55:20.945Z,7.89
2019-02-28T07:57:54.235Z,7.89
2019-02-28T08:00:18.771Z,7.98
2019-02-28T08:02:46.705Z,8.13
2019-02-28T08:05:14.468Z,8.48
2019-02-28T08:07:42.229Z,8.65
2019-02-28T08:10:12.811Z,9.15
2019-02-28T08:12:41.135Z,9.64
2019-02-28T08:15:13.675Z,9.94
2019-02-28T08:17:43.852Z,9.65
2019-02-28T08:20:11.438Z,9.26
2019-02-28T08:22:39.110Z,9.47
2019-02-28T08:25:08.579Z,10.33
2019-02-28T08:27:36.447Z,10.82
2019-02-28T08:30:05.470Z,11.94
2019-02-28T08:32:33.875Z,12.48
2019-02-28T08:35:02.034Z,12.19
2019-02-28T08:37:29.760Z,11.98
2019-02-28T08:39:57.444Z,11.89
2019-02-28T08:42:25.144Z,11.80
2019-02-28T08:45:00.805Z,11.44
2019-02-28T08:47:28.425Z,11.06
2019-02-28T08:49:56.055Z,10.77
2019-02-28T08:52:32.885Z,10.49
2019-02-28T08:55:09.279Z,10.55
2019-02-28T08:57:37.266Z,10.58
2019-02-28T09:00:06.585Z,10.34
2019-02-28T09:02:34.185Z,10.22
2019-02-28T09:05:01.767Z,10.39
2019-02-28T09:07:29.365Z,10.43
2019-02-28T09:09:57.185Z,10.56
2019-02-28T09:12:24.704Z,10.26
2019-02-28T09:14:55.415Z,10.24
2019-02-28T09:17:23.671Z,10.20
2019-02-28T09:19:51.103Z,10.21
2019-02-28T09:22:18.499Z,10.55
2019-02-28T09:24:46.736Z,10.82
2019-02-28T09:27:15.873Z,11.02
2019-02-28T09:29:43.317Z,11.09
2019-02-28T09:32:13.523Z,11.40
2019-02-28T09:34:41.284Z,11.25
2019-02-28T09:37:08.857Z,10.74
2019-02-28T09:39:36.347Z,10.79
2019-02-28T09:42:03.967Z,10.83
2019-02-28T09:44:32.408Z,10.99
2019-02-28T09:47:00.012Z,11.16
2019-02-28T09:49:27.575Z,11.34
2019-02-28T09:51:54.947Z,11.59
2019-02-28T09:54:24.401Z,11.96
2019-02-28T09:56:51.717Z,12.02
2019-02-28T09:59:19.553Z,12.01
2019-02-28T10:01:46.947Z,12.19
2019-02-28T10:04:14.422Z,12.38
2019-02-28T10:06:41.909Z,11.86
2019-02-28T10:09:09.650Z,11.57
2019-02-28T10:11:37.254Z,11.63
2019-02-28T10:14:04.877Z,11.55
2019-02-28T10:16:32.414Z,11.32
2019-02-28T10:19:00.034Z,11.26
2019-02-28T10:21:27.574Z,11.27
2019-02-28T10:23:56.849Z,11.29
2019-02-28T10:26:25.635Z,11.41
2019-02-28T10:28:53.436Z,11.51
2019-02-28T10:31:22.853Z,11.47
2019-02-28T10:33:52.532Z,11.45
2019-02-28T10:36:20.095Z,11.26
2019-02-28T10:38:47.794Z,11.34
2019-02-28T10:41:15.522Z,11.34
2019-02-28T10:43:43.317Z,11.26
2019-02-28T10:46:13.321Z,11.38
2019-02-28T10:48:50.467Z,11.32
2019-02-28T10:51:14.089Z,11.32
2019-02-28T10:53:40.258Z,11.42
2019-02-28T10:56:07.887Z,11.42
2019-02-28T10:58:35.454Z,11.46
2019-02-28T11:01:07.564Z,11.53
2019-02-28T11:03:33.260Z,11.60
2019-02-28T11:06:00.994Z,11.71
2019-02-28T11:08:28.495Z,11.94
2019-02-28T11:10:56.118Z,12.01
2019-02-28T11:13:23.717Z,12.21
2019-02-28T11:15:51.454Z,12.31
2019-02-28T11:18:19.493Z,12.16
2019-02-28T11:20:47.094Z,12.19
2019-02-28T11:23:15.872Z,12.16
2019-02-28T11:25:43.974Z,12.15
2019-02-28T11:28:11.634Z,12.09
2019-02-28T11:30:44.005Z,12.28
2019-02-28T11:33:09.115Z,12.35
2019-02-28T11:35:36.794Z,12.38
2019-02-28T11:38:05.094Z,12.37
2019-02-28T11:40:33.605Z,12.56
2019-02-28T11:43:02.726Z,12.50
2019-02-28T11:45:32.226Z,12.51
2019-02-28T11:48:02.275Z,12.65
2019-02-28T11:50:29.974Z,12.84
2019-02-28T11:53:03.261Z,12.92
2019-02-28T11:55:27.250Z,13.11
2019-02-28T11:57:54.924Z,13.32
2019-02-28T12:00:26.454Z,13.43
2019-02-28T12:02:59.919Z,13.62
2019-02-28T12:05:23.783Z,13.68
2019-02-28T12:07:51.274Z,13.68
2019-02-28T12:10:19.155Z,13.89
2019-02-28T12:12:46.754Z,13.50
2019-02-28T12:15:15.814Z,13.39
2019-02-28T12:17:43.454Z,13.32
2019-02-28T12:20:11.935Z,13.21
2019-02-28T12:22:39.676Z,13.14
2019-02-28T12:25:08.529Z,13.15
2019-02-28T12:27:36.176Z,13.46
2019-02-28T12:30:05.095Z,13.39
2019-02-28T12:32:33.019Z,13.52
2019-02-28T12:35:02.295Z,13.68
2019-02-28T12:37:36.474Z,13.82
2019-02-28T12:40:49.917Z,14.00
2019-02-28T12:43:30.255Z,13.69
2019-02-28T12:46:00.122Z,13.52
2019-02-28T12:48:27.616Z,13.71
2019-02-28T12:50:56.403Z,13.62
2019-02-28T12:53:35.255Z,13.66
2019-02-28T12:56:25.214Z,13.75
2019-02-28T12:59:02.815Z,13.82
2019-02-28T13:01:58.514Z,13.77
2019-02-28T13:04:39.387Z,13.71
2019-02-28T13:07:15.273Z,13.71
2019-02-28T13:10:06.947Z,13.97
2019-02-28T13:12:35.145Z,14.06
2019-02-28T13:15:46.805Z,13.99
2019-02-28T13:18:34.865Z,14.09
2019-02-28T13:21:43.614Z,13.79
2019-02-28T13:24:16.306Z,13.46
2019-02-28T13:28:17.678Z,13.56
2019-02-28T13:32:04.020Z,13.36
2019-02-28T13:41:22.111Z,12.91
2019-02-28T13:44:36.290Z,12.83
2019-02-28T13:47:58.062Z,12.91
2019-02-28T13:51:40.696Z,13.08
2019-02-28T13:54:23.509Z,13.28
2019-02-28T13:57:13.626Z,13.31
2019-02-28T14:00:24.020Z,13.31
2019-02-28T14:02:56.609Z,13.35
2019-02-28T14:06:19.794Z,13.47
2019-02-28T14:08:47.764Z,13.50
2019-02-28T14:12:05.690Z,13.58
2019-02-28T14:14:42.291Z,13.79
2019-02-28T14:18:11.588Z,13.80
2019-02-28T14:20:37.933Z,13.83
2019-02-28T14:23:05.725Z,13.93
2019-02-28T14:25:39.794Z,13.94
2019-02-28T14:28:06.494Z,14.00
2019-02-28T14:31:32.980Z,14.06
2019-02-28T14:33:16.187Z,14.07
2019-02-28T14:35:57.894Z,14.08
2019-02-28T14:38:51.465Z,13.98
2019-02-28T14:44:58.970Z,13.60
2019-02-28T14:47:28.523Z,13.45
2019-02-28T14:51:07.467Z,13.30
2019-02-28T14:53:49.128Z,13.21
2019-02-28T14:56:49.056Z,13.13
2019-02-28T15:00:42.301Z,13.14
2019-02-28T15:04:17.004Z,13.19
2019-02-28T15:07:59.033Z,13.21
2019-02-28T15:11:10.025Z,13.29
2019-02-28T15:14:37.305Z,13.27
2019-02-28T15:17:38.667Z,13.36
2019-02-28T15:20:31.701Z,13.33
2019-02-28T15:23:02.783Z,13.41
2019-02-28T15:25:35.782Z,13.47
2019-02-28T15:28:19.844Z,13.56
2019-02-28T15:34:25.237Z,13.46
2019-02-28T15:37:04.243Z,13.44
2019-02-28T15:39:36.808Z,13.43
2019-02-28T15:43:41.927Z,13.49
2019-02-28T15:46:01.805Z,13.47
2019-02-28T15:55:50.194Z,13.23
2019-02-28T15:58:42.322Z,13.15
2019-02-28T16:02:09.445Z,13.10
2019-02-28T16:05:05.689Z,13.16
2019-02-28T16:08:21.951Z,13.11
2019-02-28T16:11:27.721Z,13.11
2019-02-28T16:14:14.288Z,13.06
2019-02-28T16:17:14.644Z,13.04
2019-02-28T16:19:48.568Z,12.99
2019-02-28T16:23:16.223Z,12.86
2019-02-28T16:25:46.888Z,12.86
2019-02-28T16:28:29.806Z,12.80
2019-02-28T16:31:18.736Z,12.80
2019-02-28T16:33:52.161Z,12.75
2019-02-28T16:40:57.701Z,12.71
2019-02-28T16:48:06.998Z,12.60
2019-02-28T16:51:03.106Z,12.54
2019-02-28T17:01:45.906Z,12.56
2019-02-28T17:05:28.164Z,12.54
2019-02-28T17:20:22.176Z,12.39
2019-02-28T17:22:52.209Z,12.34
2019-02-28T17:25:39.800Z,12.23
2019-02-28T17:28:23.997Z,12.05
2019-02-28T17:31:12.506Z,11.87
2019-02-28T17:34:31.241Z,11.75
2019-02-28T17:37:36.213Z,11.70
2019-02-28T17:40:09.254Z,11.62
2019-02-28T17:43:04.113Z,11.62
2019-02-28T17:46:22.767Z,11.58
2019-02-28T17:49:50.874Z,11.54
2019-02-28T17:53:18.472Z,11.50
2019-02-28T17:58:06.922Z,11.39
2019-02-28T18:00:57.468Z,11.31
2019-02-28T18:08:27.815Z,11.25
2019-02-28T18:12:05.967Z,11.19
2019-02-28T18:18:53.234Z,11.19
2019-02-28T18:22:12.935Z,11.15
2019-02-28T18:25:32.754Z,11.18
2019-02-28T18:28:58.914Z,11.16
2019-02-28T18:32:12.654Z,11.13
2019-02-28T18:34:48.923Z,11.11
2019-02-28T18:37:17.422Z,11.12
2019-02-28T18:40:10.576Z,11.06
2019-02-28T18:42:54.054Z,11.04
2019-02-28T18:45:38.186Z,11.05
2019-02-28T18:48:25.745Z,11.02
2019-02-28T18:51:20.394Z,10.97
2019-02-28T18:53:50.938Z,10.94
2019-02-28T18:56:39.307Z,10.96
2019-02-28T18:59:16.404Z,10.98
2019-02-28T19:01:50.463Z,10.92
2019-02-28T19:04:24.645Z,10.88
2019-02-28T19:06:56.102Z,10.88
2019-02-28T19:09:25.162Z,10.95
2019-02-28T19:11:59.295Z,10.89
2019-02-28T19:14:38.065Z,10.81
2019-02-28T19:17:10.771Z,10.65
2019-02-28T19:19:39.262Z,10.53
2019-02-28T19:22:07.534Z,10.39
2019-02-28T19:24:36.242Z,10.36
2019-02-28T19:27:05.788Z,10.32
2019-02-28T19:29:34.106Z,10.23
2019-02-28T19:32:02.255Z,10.20
2019-02-28T19:34:30.509Z,10.17
2019-02-28T19:36:59.714Z,10.16
2019-02-28T19:39:27.695Z,10.19
2019-02-28T19:41:55.834Z,10.17
2019-02-28T19:44:23.835Z,10.15
2019-02-28T19:46:52.094Z,10.19
2019-02-28T19:49:20.440Z,10.26
2019-02-28T19:51:48.878Z,10.29
2019-02-28T19:54:18.038Z,10.22
2019-02-28T19:56:46.683Z,10.26
2019-02-28T19:59:15.455Z,10.20
2019-02-28T20:01:45.333Z,10.16
2019-02-28T20:04:15.390Z,10.26
2019-02-28T20:06:43.902Z,10.22
2019-02-28T20:09:13.554Z,10.18
2019-02-28T20:11:41.594Z,10.25
2019-02-28T20:14:09.674Z,10.22
2019-02-28T20:16:38.014Z,10.23
2019-02-28T20:19:07.215Z,10.30
2019-02-28T20:21:35.295Z,10.22
2019-02-28T20:24:03.497Z,10.26
2019-02-28T20:26:31.622Z,10.20
2019-02-28T20:28:59.955Z,10.20
2019-02-28T20:31:29.854Z,10.19
2019-02-28T20:33:57.856Z,10.10
2019-02-28T20:36:27.142Z,10.12
2019-02-28T20:38:56.619Z,10.12
2019-02-28T20:41:24.676Z,10.13
2019-02-28T20:43:54.855Z,10.16
2019-02-28T20:46:22.934Z,10.20
2019-02-28T20:48:50.956Z,10.24
2019-02-28T20:51:19.479Z,10.18
2019-02-28T20:53:47.434Z,10.18
2019-02-28T20:56:15.594Z,10.14
2019-02-28T20:58:43.555Z,10.18
2019-02-28T21:01:11.948Z,10.14
2019-02-28T21:03:40.114Z,10.10
2019-02-28T21:06:08.155Z,10.11
2019-02-28T21:08:36.284Z,10.00
2019-02-28T21:11:04.414Z,9.93
2019-02-28T21:13:32.495Z,9.89
2019-02-28T21:16:00.776Z,9.87
2019-02-28T21:18:28.734Z,9.78
2019-02-28T21:20:56.694Z,9.80
2019-02-28T21:23:24.655Z,9.83
2019-02-28T21:25:52.665Z,9.77
2019-02-28T21:28:20.906Z,9.84
2019-02-28T21:30:49.054Z,9.83
2019-02-28T21:33:17.202Z,9.84
2019-02-28T21:35:45.237Z,9.81
2019-02-28T21:38:13.275Z,9.81
2019-02-28T21:40:41.274Z,9.76
2019-02-28T21:43:09.247Z,9.78
2019-02-28T21:45:37.315Z,9.77
2019-02-28T21:48:05.278Z,9.64
2019-02-28T21:50:32.894Z,9.65
2019-02-28T21:53:00.696Z,9.60
2019-02-28T21:55:28.235Z,9.65
2019-02-28T21:57:56.035Z,9.64
2019-02-28T22:00:23.874Z,9.51
2019-02-28T22:02:51.495Z,9.60
2019-02-28T22:05:19.197Z,9.59
2019-02-28T22:07:46.800Z,9.65
2019-02-28T22:10:14.576Z,9.62
2019-02-28T22:12:42.174Z,9.50
2019-02-28T22:15:11.974Z,9.55
2019-02-28T22:17:40.173Z,9.48
2019-02-28T22:20:09.015Z,9.46
2019-02-28T22:22:36.635Z,9.54
2019-02-28T22:25:04.387Z,9.59
2019-02-28T22:27:32.135Z,9.65
2019-02-28T22:30:02.294Z,9.57
2019-02-28T22:32:35.644Z,9.58
2019-02-28T22:35:25.774Z,9.62
2019-02-28T22:37:53.355Z,9.67
2019-02-28T22:40:20.895Z,9.73
2019-02-28T22:42:48.454Z,9.73
2019-02-28T22:45:17.214Z,9.76
2019-02-28T22:47:44.754Z,9.76
2019-02-28T22:50:13.154Z,9.73
2019-02-28T22:52:40.757Z,9.75
2019-02-28T22:55:08.594Z,9.75
2019-02-28T22:57:36.235Z,9.73
2019-02-28T23:00:08.434Z,9.76
2019-02-28T23:02:35.955Z,9.73
2019-02-28T23:05:03.671Z,9.75
2019-02-28T23:07:31.242Z,9.72
2019-02-28T23:09:58.814Z,9.66
2019-02-28T23:12:26.371Z,9.66
2019-02-28T23:14:56.751Z,9.64
2019-02-28T23:17:24.534Z,9.61
2019-02-28T23:19:52.117Z,9.58
2019-02-28T23:22:19.695Z,9.56
2019-02-28T23:24:47.455Z,9.56
2019-02-28T23:27:16.714Z,9.58
2019-02-28T23:30:00.545Z,9.52
2019-02-28T23:33:08.069Z,9.57
2019-02-28T23:35:49.173Z,9.50
2019-02-28T23:38:25.153Z,9.55
2019-02-28T23:41:03.109Z,9.58
2019-02-28T23:43:31.474Z,9.60
2019-02-28T23:45:59.454Z,9.63
2019-02-28T23:48:28.013Z,9.57
2019-02-28T23:51:05.154Z,9.58
2019-02-28T23:53:36.934Z,9.59
2019-02-28T23:56:04.792Z,9.60
2019-02-28T23:58:33.677Z,9.61
